createdAt,value
2018-04-17T00:00:33.860Z,94.03
2018-04-17T00:01:33.775Z,93.51
2018-04-17T00:02:33.707Z,92.89
2018-04-17T00:03:33.620Z,93.27
2018-04-17T00:04:33.554Z,94.18
2018-04-17T00:05:33.475Z,94.56
2018-04-17T00:06:33.406Z,94.27
2018-04-17T00:07:33.326Z,94.42
2018-04-17T00:08:33.249Z,94.56
2018-04-17T00:09:33.170Z,95.03
2018-04-17T00:10:33.096Z,95.22
2018-04-17T00:11:33.010Z,95.89
2018-04-17T00:12:32.940Z,95.51
2018-04-17T00:13:32.863Z,95.32
2018-04-17T00:14:32.790Z,95.08
2018-04-17T00:15:32.705Z,95.70
2018-04-17T00:16:32.639Z,96.36
2018-04-17T00:17:32.555Z,96.55
2018-04-17T00:18:32.484Z,96.26
2018-04-17T00:19:32.397Z,95.51
2018-04-17T00:20:32.329Z,95.79
2018-04-17T00:21:32.247Z,96.36
2018-04-17T00:22:32.181Z,95.51
2018-04-17T00:23:32.093Z,95.70
2018-04-17T00:24:32.025Z,95.51
2018-04-17T00:25:31.940Z,95.98
2018-04-17T00:26:31.872Z,96.26
2018-04-17T00:27:31.788Z,97.74
2018-04-17T00:28:31.717Z,97.45
2018-04-17T00:29:31.635Z,97.55
2018-04-17T00:30:31.572Z,97.55
2018-04-17T00:31:31.481Z,97.93
2018-04-17T00:32:31.414Z,97.36
2018-04-17T00:33:31.333Z,97.60
2018-04-17T00:34:31.265Z,97.17
2018-04-17T00:35:31.176Z,96.60
2018-04-17T00:36:31.106Z,95.46
2018-04-17T00:37:31.023Z,95.89
2018-04-17T00:38:30.955Z,95.79
2018-04-17T00:39:30.870Z,95.46
2018-04-17T00:40:31.800Z,95.84
2018-04-17T00:41:30.715Z,95.70
2018-04-17T00:42:30.649Z,95.12
2018-04-17T00:43:30.571Z,94.18
2018-04-17T00:44:30.498Z,89.47
2018-04-17T00:45:30.411Z,86.99
2018-04-17T00:46:30.344Z,87.19
2018-04-17T00:47:30.257Z,89.00
2018-04-17T00:48:30.190Z,90.33
2018-04-17T00:49:30.109Z,92.89
2018-04-17T00:50:30.037Z,93.84
2018-04-17T00:51:29.952Z,93.94
2018-04-17T00:52:29.887Z,95.94
2018-04-17T00:53:29.801Z,96.22
2018-04-17T00:54:29.733Z,95.46
2018-04-17T00:55:29.646Z,96.41
2018-04-17T00:56:29.577Z,95.84
2018-04-17T00:57:29.499Z,94.98
2018-04-17T00:58:29.424Z,94.32
2018-04-17T00:59:29.340Z,94.60
2018-04-17T01:00:29.273Z,94.22
2018-04-17T01:01:29.189Z,94.60
2018-04-17T01:02:29.119Z,93.75
2018-04-17T01:03:29.033Z,94.79
2018-04-17T01:04:28.966Z,92.80
2018-04-17T01:05:28.880Z,92.32
2018-04-17T01:06:28.816Z,93.08
2018-04-17T01:07:28.730Z,93.55
2018-04-17T01:08:28.658Z,94.60
2018-04-17T01:09:28.577Z,95.17
2018-04-17T01:10:28.505Z,95.65
2018-04-17T01:11:28.426Z,96.03
2018-04-17T01:12:28.351Z,95.75
2018-04-17T01:13:28.268Z,95.12
2018-04-17T01:14:28.201Z,95.79
2018-04-17T01:15:28.115Z,97.41
2018-04-17T01:16:28.049Z,97.69
2018-04-17T01:17:27.961Z,97.31
2018-04-17T01:18:27.895Z,97.88
2018-04-17T01:19:27.813Z,97.50
2018-04-17T01:20:27.739Z,97.69
2018-04-17T01:21:27.656Z,98.55
2018-04-17T01:22:27.586Z,99.78
2018-04-17T01:23:27.502Z,99.97
2018-04-17T01:24:27.431Z,99.78
2018-04-17T01:25:27.350Z,99.69
2018-04-17T01:26:27.278Z,99.69
2018-04-17T01:27:27.191Z,99.69
2018-04-17T01:28:27.124Z,99.59
2018-04-17T01:29:27.047Z,99.88
2018-04-17T01:30:26.970Z,99.78
2018-04-17T01:31:26.884Z,99.88
2018-04-17T01:32:26.817Z,98.74
2018-04-17T01:33:26.736Z,97.22
2018-04-17T01:34:26.655Z,95.89
2018-04-17T01:35:26.586Z,95.41
2018-04-17T01:36:26.500Z,95.41
2018-04-17T01:37:26.432Z,95.41
2018-04-17T01:38:26.348Z,94.93
2018-04-17T01:39:26.281Z,94.37
2018-04-17T01:40:26.194Z,94.93
2018-04-17T01:41:26.125Z,95.03
2018-04-17T01:42:26.045Z,95.41
2018-04-17T01:43:25.977Z,95.98
2018-04-17T01:44:25.896Z,96.45
2018-04-17T01:45:25.819Z,93.41
2018-04-17T01:46:25.732Z,92.27
2018-04-17T01:47:25.667Z,93.13
2018-04-17T01:48:25.579Z,93.13
2018-04-17T01:49:25.535Z,93.60
2018-04-17T01:50:25.425Z,95.03
2018-04-17T01:51:25.355Z,95.60
2018-04-17T01:52:25.270Z,95.79
2018-04-17T01:53:25.202Z,95.41
2018-04-17T01:54:25.118Z,96.17
2018-04-17T01:55:25.052Z,96.55
2018-04-17T01:56:24.964Z,96.17
2018-04-17T01:57:24.895Z,95.41
2018-04-17T01:58:24.821Z,94.93
2018-04-17T01:59:24.742Z,94.93
2018-04-17T02:00:24.665Z,94.74
2018-04-17T02:01:24.592Z,95.79
2018-04-17T02:02:24.502Z,96.36
2018-04-17T02:03:24.437Z,96.74
2018-04-17T02:04:24.349Z,96.55
2018-04-17T02:05:24.284Z,96.17
2018-04-17T02:06:24.196Z,95.70
2018-04-17T02:07:24.128Z,95.79
2018-04-17T02:08:24.043Z,96.17
2018-04-17T02:09:23.969Z,95.98
2018-04-17T02:10:23.886Z,96.65
2018-04-17T02:11:23.814Z,96.55
2018-04-17T02:12:23.735Z,95.32
2018-04-17T02:13:23.664Z,92.27
2018-04-17T02:14:23.632Z,91.52
2018-04-17T02:15:23.506Z,90.00
2018-04-17T02:16:23.423Z,90.28
2018-04-17T02:17:23.355Z,91.61
2018-04-17T02:18:23.273Z,92.37
2018-04-17T02:19:23.201Z,92.08
2018-04-17T02:20:23.127Z,92.80
2018-04-17T02:21:23.045Z,93.46
2018-04-17T02:22:22.963Z,94.42
2018-04-17T02:23:22.893Z,93.27
2018-04-17T02:24:22.808Z,91.19
2018-04-17T02:25:22.751Z,91.09
2018-04-17T02:26:22.654Z,92.42
2018-04-17T02:27:22.586Z,93.08
2018-04-17T02:28:22.498Z,95.36
2018-04-17T02:29:22.432Z,97.45
2018-04-17T02:30:22.345Z,97.64
2018-04-17T02:31:22.281Z,98.21
2018-04-17T02:32:22.192Z,98.02
2018-04-17T02:33:22.120Z,99.07
2018-04-17T02:34:22.040Z,99.07
2018-04-17T02:35:21.968Z,99.64
2018-04-17T02:36:21.880Z,98.88
2018-04-17T02:37:21.812Z,98.59
2018-04-17T02:38:21.727Z,98.59
2018-04-17T02:39:21.657Z,97.45
2018-04-17T02:40:21.572Z,97.07
2018-04-17T02:41:21.502Z,96.41
2018-04-17T02:42:21.418Z,95.27
2018-04-17T02:43:21.349Z,94.60
2018-04-17T02:44:21.263Z,94.32
2018-04-17T02:45:21.194Z,94.13
2018-04-17T02:46:21.114Z,94.65
2018-04-17T02:47:21.039Z,95.94
2018-04-17T02:48:20.954Z,96.79
2018-04-17T02:49:20.890Z,97.83
2018-04-17T02:50:20.798Z,97.36
2018-04-17T02:51:20.731Z,97.36
2018-04-17T02:52:20.643Z,96.31
2018-04-17T02:53:20.574Z,97.55
2018-04-17T02:54:20.489Z,97.36
2018-04-17T02:55:20.417Z,97.92
2018-04-17T02:56:20.333Z,98.88
2018-04-17T02:57:20.266Z,98.97
2018-04-17T02:58:20.180Z,98.59
2018-04-17T02:59:20.108Z,98.31
2018-04-17T03:00:20.021Z,97.92
2018-04-17T03:01:19.953Z,97.55
2018-04-17T03:02:19.870Z,97.55
2018-04-17T03:03:19.801Z,97.64
2018-04-17T03:04:19.730Z,97.64
2018-04-17T03:05:19.663Z,96.98
2018-04-17T03:06:19.561Z,97.83
2018-04-17T03:07:19.490Z,97.45
2018-04-17T03:08:19.402Z,97.36
2018-04-17T03:09:19.336Z,96.98
2018-04-17T03:10:19.248Z,96.31
2018-04-17T03:11:19.181Z,96.31
2018-04-17T03:12:19.094Z,96.12
2018-04-17T03:13:19.022Z,96.41
2018-04-17T03:14:18.939Z,96.41
2018-04-17T03:15:18.869Z,96.98
2018-04-17T03:16:18.785Z,97.36
2018-04-17T03:17:18.716Z,97.55
2018-04-17T03:18:18.628Z,97.64
2018-04-17T03:19:18.564Z,97.45
2018-04-17T03:20:18.478Z,97.45
2018-04-17T03:21:18.402Z,97.07
2018-04-17T03:22:18.319Z,97.07
2018-04-17T03:23:18.249Z,97.60
2018-04-17T03:24:18.166Z,97.45
2018-04-17T03:25:18.097Z,96.88
2018-04-17T03:26:18.013Z,97.17
2018-04-17T03:27:17.940Z,96.88
2018-04-17T03:28:17.856Z,96.69
2018-04-17T03:29:17.786Z,96.60
2018-04-17T03:30:17.702Z,96.31
2018-04-17T03:31:17.630Z,94.42
2018-04-17T03:32:17.546Z,93.84
2018-04-17T03:33:17.475Z,93.94
2018-04-17T03:34:17.391Z,94.70
2018-04-17T03:35:17.320Z,95.55
2018-04-17T03:36:17.235Z,96.41
2018-04-17T03:37:17.164Z,96.12
2018-04-17T03:38:17.079Z,96.69
2018-04-17T03:39:17.011Z,97.07
2018-04-17T03:40:16.924Z,96.69
2018-04-17T03:41:16.853Z,96.31
2018-04-17T03:42:16.770Z,96.12
2018-04-17T03:43:16.700Z,95.08
2018-04-17T03:44:16.617Z,93.08
2018-04-17T03:45:16.547Z,93.56
2018-04-17T03:46:16.461Z,95.08
2018-04-17T03:47:16.390Z,95.17
2018-04-17T03:48:16.321Z,96.41
2018-04-17T03:49:16.242Z,96.41
2018-04-17T03:50:16.165Z,97.55
2018-04-17T03:51:16.072Z,97.55
2018-04-17T03:52:17.106Z,98.59
2018-04-17T03:53:15.962Z,98.88
2018-04-17T03:54:15.888Z,99.44
2018-04-17T03:55:15.765Z,99.83
2018-04-17T03:56:16.721Z,98.79
2018-04-17T03:57:15.607Z,98.59
2018-04-17T03:58:15.612Z,98.12
2018-04-17T03:59:15.452Z,97.92
2018-04-17T04:00:15.416Z,97.64
2018-04-17T04:01:15.300Z,97.74
2018-04-17T04:02:15.329Z,97.83
2018-04-17T04:03:15.144Z,98.02
2018-04-17T04:04:15.136Z,97.92
2018-04-17T04:05:14.987Z,97.83
2018-04-17T04:06:14.945Z,98.50
2018-04-17T04:07:14.831Z,97.92
2018-04-17T04:08:14.851Z,98.59
2018-04-17T04:09:14.676Z,98.88
2018-04-17T04:10:14.660Z,97.92
2018-04-17T04:11:14.528Z,98.02
2018-04-17T04:12:14.471Z,98.21
2018-04-17T04:13:14.373Z,97.36
2018-04-17T04:14:14.381Z,97.74
2018-04-17T04:15:14.210Z,97.55
2018-04-17T04:16:14.208Z,97.83
2018-04-17T04:17:14.055Z,98.12
2018-04-17T04:18:13.991Z,98.79
2018-04-17T04:19:13.904Z,97.55
2018-04-17T04:20:13.907Z,97.64
2018-04-17T04:21:13.749Z,98.02
2018-04-17T04:22:13.737Z,97.83
2018-04-17T04:23:13.591Z,97.64
2018-04-17T04:24:13.625Z,97.74
2018-04-17T04:25:13.437Z,96.69
2018-04-17T04:26:13.439Z,94.51
2018-04-17T04:27:13.280Z,95.08
2018-04-17T04:28:13.242Z,96.69
2018-04-17T04:29:13.126Z,97.36
2018-04-17T04:30:13.154Z,96.41
2018-04-17T04:31:12.970Z,95.75
2018-04-17T04:32:12.963Z,92.99
2018-04-17T04:33:12.813Z,92.18
2018-04-17T04:34:12.772Z,92.85
2018-04-17T04:35:12.657Z,94.56
2018-04-17T04:36:12.589Z,95.51
2018-04-17T04:37:12.504Z,96.26
2018-04-17T04:38:12.486Z,96.17
2018-04-17T04:39:12.346Z,97.12
2018-04-17T04:40:12.275Z,98.16
2018-04-17T04:41:12.193Z,98.73
2018-04-17T04:42:12.124Z,98.73
2018-04-17T04:43:12.051Z,99.68
2018-04-17T04:44:12.016Z,98.92
2018-04-17T04:45:11.881Z,98.73
2018-04-17T04:46:11.824Z,99.02
2018-04-17T04:47:11.725Z,99.49
2018-04-17T04:48:11.735Z,99.68
2018-04-17T04:49:11.572Z,99.21
2018-04-17T04:50:11.544Z,98.64
2018-04-17T04:51:11.414Z,97.97
2018-04-17T04:52:11.395Z,97.78
2018-04-17T04:53:11.259Z,97.97
2018-04-17T04:54:11.262Z,97.92
2018-04-17T04:55:11.113Z,97.22
2018-04-17T04:56:11.070Z,96.17
2018-04-17T04:57:10.949Z,96.08
2018-04-17T04:58:10.984Z,96.55
2018-04-17T04:59:10.794Z,97.07
2018-04-17T05:00:10.791Z,97.41
2018-04-17T05:01:10.640Z,97.78
2018-04-17T05:02:10.598Z,95.79
2018-04-17T05:03:10.481Z,95.51
2018-04-17T05:04:10.513Z,96.83
2018-04-17T05:05:10.329Z,97.31
2018-04-17T05:06:10.317Z,98.35
2018-04-17T05:07:10.171Z,98.73
2018-04-17T05:08:10.126Z,99.77
2018-04-17T05:09:10.018Z,99.77
2018-04-17T05:10:10.042Z,99.68
2018-04-17T05:11:09.860Z,99.99
2018-04-17T05:12:09.848Z,99.99
2018-04-17T05:13:09.707Z,99.77
2018-04-17T05:14:09.683Z,99.77
2018-04-17T05:15:09.549Z,99.68
2018-04-17T05:16:09.566Z,99.58
2018-04-17T05:17:09.392Z,99.77
2018-04-17T05:18:09.372Z,99.99
2018-04-17T05:19:09.251Z,99.99
2018-04-17T05:20:09.186Z,99.97
2018-04-17T05:21:09.084Z,99.99
2018-04-17T05:22:09.092Z,99.99
2018-04-17T05:23:08.927Z,99.99
2018-04-17T05:24:08.906Z,99.99
2018-04-17T05:25:08.770Z,99.83
2018-04-17T05:26:08.709Z,99.64
2018-04-17T05:27:08.614Z,99.92
2018-04-17T05:28:08.547Z,99.92
2018-04-17T05:29:08.461Z,99.99
2018-04-17T05:30:08.429Z,99.99
2018-04-17T05:31:08.304Z,99.99
2018-04-17T05:32:08.339Z,99.99
2018-04-17T05:33:08.154Z,99.99
2018-04-17T05:34:08.149Z,99.99
2018-04-17T05:35:07.993Z,99.99
2018-04-17T05:36:07.956Z,99.99
2018-04-17T05:37:07.836Z,99.99
2018-04-17T05:38:07.867Z,99.99
2018-04-17T05:39:07.682Z,99.99
2018-04-17T05:40:07.694Z,99.99
2018-04-17T05:41:07.529Z,99.99
2018-04-17T05:42:07.486Z,99.99
2018-04-17T05:43:07.369Z,99.99
2018-04-17T05:44:07.393Z,99.99
2018-04-17T05:45:07.216Z,99.99
2018-04-17T05:46:07.204Z,99.99
2018-04-17T05:47:07.065Z,99.99
2018-04-17T05:48:07.013Z,99.99
2018-04-17T05:49:06.903Z,99.99
2018-04-17T05:50:06.924Z,99.99
2018-04-17T05:51:06.740Z,99.99
2018-04-17T05:52:06.733Z,99.99
2018-04-17T05:53:06.585Z,99.99
2018-04-17T05:54:06.537Z,99.99
2018-04-17T05:55:06.432Z,99.99
2018-04-17T05:56:06.448Z,99.99
2018-04-17T05:57:06.276Z,99.99
2018-04-17T05:58:06.256Z,99.99
2018-04-17T05:59:06.119Z,99.99
2018-04-17T06:00:06.064Z,99.99
2018-04-17T06:01:05.966Z,99.99
2018-04-17T06:02:05.981Z,99.99
2018-04-17T06:03:05.807Z,99.99
2018-04-17T06:04:05.784Z,99.99
2018-04-17T06:05:05.652Z,99.99
2018-04-17T06:06:05.695Z,99.99
2018-04-17T06:07:05.497Z,99.99
2018-04-17T06:08:05.514Z,99.99
2018-04-17T06:09:05.349Z,99.99
2018-04-17T06:10:05.314Z,99.99
2018-04-17T06:11:05.190Z,99.99
2018-04-17T06:12:05.223Z,99.99
2018-04-17T06:13:05.035Z,99.99
2018-04-17T06:14:05.036Z,99.99
2018-04-17T06:15:04.884Z,99.99
2018-04-17T06:16:04.841Z,99.99
2018-04-17T06:17:04.726Z,99.99
2018-04-17T06:18:04.747Z,99.99
2018-04-17T06:19:04.571Z,99.99
2018-04-17T06:20:04.556Z,99.99
2018-04-17T06:21:04.418Z,99.99
2018-04-17T06:22:04.370Z,99.99
2018-04-17T06:23:04.261Z,99.99
2018-04-17T06:24:04.285Z,99.99
2018-04-17T06:25:04.124Z,99.99
2018-04-17T06:26:04.120Z,99.99
2018-04-17T06:27:03.952Z,99.99
2018-04-17T06:28:03.895Z,99.99
2018-04-17T06:29:03.799Z,99.99
2018-04-17T06:30:03.808Z,99.99
2018-04-17T06:31:03.646Z,99.99
2018-04-17T06:32:03.616Z,99.99
2018-04-17T06:33:03.488Z,99.99
2018-04-17T06:34:03.530Z,99.99
2018-04-17T06:35:03.360Z,99.99
2018-04-17T06:36:03.331Z,99.99
2018-04-17T06:37:03.185Z,99.99
2018-04-17T06:38:03.143Z,99.99
2018-04-17T06:39:03.031Z,99.99
2018-04-17T06:40:03.056Z,99.99
2018-04-17T06:41:02.877Z,99.99
2018-04-17T06:42:02.893Z,99.99
2018-04-17T06:43:02.723Z,99.99
2018-04-17T06:44:02.655Z,99.99
2018-04-17T06:45:02.582Z,99.99
2018-04-17T06:46:02.591Z,99.99
2018-04-17T06:47:02.415Z,99.99
2018-04-17T06:48:02.389Z,99.99
2018-04-17T06:49:02.263Z,99.99
2018-04-17T06:50:02.303Z,99.99
2018-04-17T06:51:02.116Z,99.99
2018-04-17T06:52:02.124Z,99.99
2018-04-17T06:53:01.957Z,99.99
2018-04-17T06:54:01.918Z,99.99
2018-04-17T06:55:01.802Z,99.99
2018-04-17T06:56:01.828Z,99.99
2018-04-17T06:57:01.653Z,99.99
2018-04-17T06:58:01.693Z,99.99
2018-04-17T06:59:01.511Z,99.99
2018-04-17T07:00:01.448Z,99.99
2018-04-17T07:01:01.341Z,99.99
2018-04-17T07:02:01.356Z,99.99
2018-04-17T07:03:01.191Z,99.99
2018-04-17T07:04:01.162Z,99.99
2018-04-17T07:05:01.040Z,99.99
2018-04-17T07:06:01.075Z,99.99
2018-04-17T07:07:00.889Z,99.99
2018-04-17T07:08:00.883Z,99.99
2018-04-17T07:09:00.735Z,99.99
2018-04-17T07:10:00.691Z,99.99
2018-04-17T07:11:00.580Z,99.99
2018-04-17T07:12:00.601Z,99.99
2018-04-17T07:13:00.436Z,99.99
2018-04-17T07:14:00.411Z,99.99
2018-04-17T07:15:00.281Z,99.99
2018-04-17T07:16:00.325Z,99.99
2018-04-17T07:17:00.150Z,99.99
2018-04-17T07:18:00.130Z,99.99
2018-04-17T07:18:59.980Z,99.99
2018-04-17T07:19:59.940Z,99.99
2018-04-17T07:20:59.829Z,99.99
2018-04-17T07:21:59.844Z,99.80
2018-04-17T07:22:59.675Z,99.99
2018-04-17T07:23:59.661Z,99.18
2018-04-17T07:24:59.525Z,98.99
2018-04-17T07:25:59.465Z,98.28
2018-04-17T07:26:59.379Z,97.13
2018-04-17T07:27:59.377Z,95.22
2018-04-17T07:28:59.222Z,94.65
2018-04-17T07:29:59.186Z,94.07
2018-04-17T07:30:59.071Z,94.89
2018-04-17T07:31:59.099Z,94.70
2018-04-17T07:32:58.922Z,93.07
2018-04-17T07:33:58.907Z,92.11
2018-04-17T07:34:58.774Z,91.25
2018-04-17T07:35:58.713Z,90.97
2018-04-17T07:36:58.625Z,91.54
2018-04-17T07:37:58.623Z,92.30
2018-04-17T07:38:58.472Z,91.97
2018-04-17T07:39:58.434Z,89.67
2018-04-17T07:40:58.324Z,89.87
2018-04-17T07:41:58.343Z,90.06
2018-04-17T07:42:58.176Z,90.92
2018-04-17T07:43:58.151Z,88.48
2018-04-17T07:44:58.027Z,87.43
2018-04-17T07:45:58.061Z,88.86
2018-04-17T07:46:57.879Z,86.94
2018-04-17T07:47:57.868Z,86.47
2018-04-17T07:48:57.731Z,87.33
2018-04-17T07:49:57.680Z,86.13
2018-04-17T07:50:57.586Z,86.80
2018-04-17T07:51:57.588Z,84.12
2018-04-17T07:52:57.434Z,83.93
2018-04-17T07:53:57.398Z,86.32
2018-04-17T07:54:57.288Z,87.32
2018-04-17T07:55:57.315Z,87.70
2018-04-17T07:56:57.148Z,85.88
2018-04-17T07:57:57.117Z,84.92
2018-04-17T07:58:56.992Z,82.19
2018-04-17T07:59:57.034Z,83.44
2018-04-17T08:00:56.847Z,84.01
2018-04-17T08:01:56.839Z,82.76
2018-04-17T08:02:56.702Z,82.09
2018-04-17T08:03:56.648Z,82.38
2018-04-17T08:04:56.554Z,83.67
2018-04-17T08:05:56.562Z,85.78
2018-04-17T08:06:56.406Z,85.58
2018-04-17T08:07:56.367Z,84.34
2018-04-17T08:08:56.263Z,84.28
2018-04-17T08:09:56.278Z,84.38
2018-04-17T08:10:56.118Z,81.02
2018-04-17T08:11:56.137Z,80.64
2018-04-17T08:12:55.975Z,81.64
2018-04-17T08:13:55.996Z,79.39
2018-04-17T08:14:55.830Z,78.82
2018-04-17T08:15:55.804Z,79.11
2018-04-17T08:16:55.685Z,79.05
2018-04-17T08:17:55.714Z,79.34
2018-04-17T08:18:55.542Z,80.11
2018-04-17T08:19:55.522Z,78.96
2018-04-17T08:20:55.396Z,79.53
2018-04-17T08:21:55.433Z,80.34
2018-04-17T08:22:55.252Z,81.40
2018-04-17T08:23:55.241Z,78.32
2018-04-17T08:24:55.107Z,77.98
2018-04-17T08:25:55.153Z,77.21
2018-04-17T08:26:54.963Z,76.82
2018-04-17T08:27:54.980Z,77.01
2018-04-17T08:28:54.822Z,76.06
2018-04-17T08:29:54.772Z,74.62
2018-04-17T08:30:54.683Z,75.10
2018-04-17T08:31:54.680Z,75.82
2018-04-17T08:32:54.539Z,76.25
2018-04-17T08:33:54.490Z,77.50
2018-04-17T08:34:54.397Z,76.73
2018-04-17T08:35:54.401Z,77.31
2018-04-17T08:36:54.293Z,74.71
2018-04-17T08:37:54.207Z,73.79
2018-04-17T08:38:54.116Z,74.94
2018-04-17T08:39:54.119Z,73.11
2018-04-17T08:40:53.972Z,71.77
2018-04-17T08:41:53.928Z,73.11
2018-04-17T08:42:53.833Z,74.17
2018-04-17T08:43:53.836Z,74.17
2018-04-17T08:44:53.690Z,72.44
2018-04-17T08:45:53.644Z,72.44
2018-04-17T08:46:53.550Z,72.92
2018-04-17T08:47:53.560Z,72.64
2018-04-17T08:48:53.420Z,73.41
2018-04-17T08:49:53.367Z,73.21
2018-04-17T08:50:53.268Z,73.15
2018-04-17T08:51:53.278Z,73.06
2018-04-17T08:52:53.129Z,73.15
2018-04-17T08:53:53.084Z,74.11
2018-04-17T08:54:52.991Z,73.96
2018-04-17T08:55:52.998Z,70.88
2018-04-17T08:56:52.849Z,70.59
2018-04-17T08:57:52.802Z,71.17
2018-04-17T08:58:52.712Z,71.17
2018-04-17T08:59:52.715Z,71.65
2018-04-17T09:00:52.577Z,71.84
2018-04-17T09:01:52.526Z,69.73
2018-04-17T09:02:52.432Z,69.63
2018-04-17T09:03:52.436Z,70.30
2018-04-17T09:04:52.295Z,70.50
2018-04-17T09:05:52.246Z,67.51
2018-04-17T09:06:52.157Z,66.94
2018-04-17T09:07:52.154Z,68.48
2018-04-17T09:08:52.017Z,69.76
2018-04-17T09:09:52.068Z,70.53
2018-04-17T09:10:51.876Z,69.47
2018-04-17T09:11:51.946Z,67.65
2018-04-17T09:12:51.741Z,67.26
2018-04-17T09:13:51.787Z,66.68
2018-04-17T09:14:51.604Z,66.78
2018-04-17T09:15:51.598Z,67.10
2018-04-17T09:16:51.468Z,65.94
2018-04-17T09:17:51.508Z,66.42
2018-04-17T09:18:51.329Z,65.66
2018-04-17T09:19:51.317Z,65.11
2018-04-17T09:20:51.190Z,65.17
2018-04-17T09:21:51.232Z,64.25
2018-04-17T09:22:51.056Z,62.41
2018-04-17T09:23:52.998Z,63.95
2018-04-17T09:24:50.913Z,64.15
2018-04-17T09:25:51.971Z,65.69
2018-04-17T09:26:50.782Z,62.99
2018-04-17T09:27:50.754Z,61.35
2018-04-17T09:28:50.645Z,62.03
2018-04-17T09:29:50.664Z,61.07
2018-04-17T09:30:50.513Z,58.65
2018-04-17T09:31:50.475Z,59.14
2018-04-17T09:32:50.375Z,58.05
2018-04-17T09:33:50.388Z,60.55
2018-04-17T09:34:50.244Z,60.46
2018-04-17T09:35:50.192Z,61.80
2018-04-17T09:36:50.108Z,61.29
2018-04-17T09:37:50.104Z,62.06
2018-04-17T09:38:49.974Z,61.42
2018-04-17T09:39:50.013Z,60.84
2018-04-17T09:40:49.830Z,62.96
2018-04-17T09:41:49.777Z,63.47
2018-04-17T09:42:49.695Z,62.80
2018-04-17T09:43:49.731Z,63.28
2018-04-17T09:44:49.562Z,65.20
2018-04-17T09:45:49.542Z,61.77
2018-04-17T09:46:49.424Z,60.03
2018-04-17T09:47:49.452Z,60.23
2018-04-17T09:48:49.290Z,59.07
2018-04-17T09:49:49.264Z,59.78
2018-04-17T09:50:49.155Z,60.06
2018-04-17T09:51:49.174Z,60.16
2018-04-17T09:52:49.023Z,60.93
2018-04-17T09:53:48.983Z,59.61
2018-04-17T09:54:48.888Z,60.19
2018-04-17T09:55:48.893Z,58.75
2018-04-17T09:56:48.755Z,59.74
2018-04-17T09:57:48.701Z,60.41
2018-04-17T09:58:48.616Z,58.68
2018-04-17T09:59:48.607Z,56.26
2018-04-17T10:00:48.483Z,55.10
2018-04-17T10:01:48.522Z,53.75
2018-04-17T10:02:48.350Z,57.04
2018-04-17T10:03:48.328Z,56.58
2018-04-17T10:04:48.216Z,54.33
2018-04-17T10:05:48.242Z,54.91
2018-04-17T10:06:48.081Z,58.61
2018-04-17T10:07:48.051Z,61.31
2018-04-17T10:08:47.989Z,61.02
2018-04-17T10:09:47.963Z,58.00
2018-04-17T10:10:47.820Z,56.87
2018-04-17T10:11:47.768Z,56.10
2018-04-17T10:12:47.683Z,54.65
2018-04-17T10:13:47.679Z,54.24
2018-04-17T10:14:47.547Z,54.24
2018-04-17T10:15:47.590Z,55.30
2018-04-17T10:16:47.415Z,54.33
2018-04-17T10:17:47.398Z,51.61
2018-04-17T10:18:47.282Z,51.97
2018-04-17T10:19:47.310Z,53.73
2018-04-17T10:20:47.150Z,50.45
2018-04-17T10:21:47.120Z,53.83
2018-04-17T10:22:47.018Z,51.89
2018-04-17T10:23:47.028Z,53.44
2018-04-17T10:24:46.889Z,54.21
2018-04-17T10:25:46.838Z,54.31
2018-04-17T10:26:46.757Z,57.01
2018-04-17T10:27:46.749Z,53.44
2018-04-17T10:28:46.624Z,53.83
2018-04-17T10:29:46.664Z,53.53
2018-04-17T10:30:46.498Z,58.26
2018-04-17T10:31:46.468Z,56.81
2018-04-17T10:32:46.361Z,55.20
2018-04-17T10:33:46.378Z,56.46
2018-04-17T10:34:46.228Z,55.62
2018-04-17T10:35:46.188Z,54.07
2018-04-17T10:36:46.098Z,53.13
2018-04-17T10:37:46.100Z,51.59
2018-04-17T10:38:45.964Z,52.36
2018-04-17T10:39:46.047Z,52.45
2018-04-17T10:40:45.834Z,50.26
2018-04-17T10:41:45.822Z,50.62
2018-04-17T10:42:45.702Z,50.91
2018-04-17T10:43:45.729Z,49.46
2018-04-17T10:44:45.572Z,46.95
2018-04-17T10:45:45.514Z,47.05
2018-04-17T10:46:45.439Z,53.42
2018-04-17T10:47:45.448Z,53.61
2018-04-17T10:48:45.310Z,54.19
2018-04-17T10:49:45.362Z,54.29
2018-04-17T10:50:45.177Z,49.27
2018-04-17T10:51:45.168Z,49.27
2018-04-17T10:52:45.051Z,48.88
2018-04-17T10:53:45.105Z,51.01
2018-04-17T10:54:44.918Z,49.29
2018-04-17T10:55:44.886Z,46.30
2018-04-17T10:56:44.792Z,44.46
2018-04-17T10:57:44.798Z,42.33
2018-04-17T10:58:44.656Z,42.91
2018-04-17T10:59:44.712Z,42.91
2018-04-17T11:00:44.526Z,42.41
2018-04-17T11:01:44.517Z,41.93
2018-04-17T11:02:44.400Z,40.94
2018-04-17T11:03:44.430Z,43.45
2018-04-17T11:04:44.276Z,44.01
2018-04-17T11:05:44.236Z,43.43
2018-04-17T11:06:44.134Z,43.04
2018-04-17T11:07:44.146Z,47.48
2018-04-17T11:08:44.006Z,50.35
2018-04-17T11:09:43.952Z,51.80
2018-04-17T11:10:43.875Z,48.81
2018-04-17T11:11:43.872Z,44.93
2018-04-17T11:12:43.743Z,46.28
2018-04-17T11:13:43.778Z,45.89
2018-04-17T11:14:43.609Z,46.64
2018-04-17T11:15:43.588Z,51.94
2018-04-17T11:16:43.478Z,53.48
2018-04-17T11:17:43.502Z,51.46
2018-04-17T11:18:43.345Z,54.28
2018-04-17T11:19:43.308Z,54.66
2018-04-17T11:20:43.211Z,55.15
2018-04-17T11:21:43.216Z,55.27
2018-04-17T11:22:43.079Z,52.95
2018-04-17T11:23:43.128Z,51.25
2018-04-17T11:24:42.949Z,50.57
2018-04-17T11:25:42.892Z,50.86
2018-04-17T11:26:42.815Z,48.47
2018-04-17T11:27:42.778Z,47.80
2018-04-17T11:28:42.686Z,47.22
2018-04-17T11:29:42.688Z,45.89
2018-04-17T11:30:42.553Z,46.75
2018-04-17T11:31:42.565Z,47.24
2018-04-17T11:32:42.424Z,45.21
2018-04-17T11:33:42.379Z,49.95
2018-04-17T11:34:42.333Z,47.05
2018-04-17T11:35:42.287Z,49.37
2018-04-17T11:36:42.159Z,46.75
2018-04-17T11:37:42.195Z,44.63
2018-04-17T11:38:42.039Z,43.45
2018-04-17T11:39:42.007Z,44.24
2018-04-17T11:40:41.893Z,45.31
2018-04-17T11:41:41.916Z,45.89
2018-04-17T11:42:41.767Z,43.47
2018-04-17T11:43:41.725Z,44.05
2018-04-17T11:44:41.633Z,43.88
2018-04-17T11:45:41.638Z,44.46
2018-04-17T11:46:41.502Z,43.10
2018-04-17T11:47:41.548Z,42.91
2018-04-17T11:48:41.402Z,42.82
2018-04-17T11:49:41.355Z,43.49
2018-04-17T11:50:41.242Z,46.10
2018-04-17T11:51:41.268Z,48.13
2018-04-17T11:52:41.110Z,49.19
2018-04-17T11:53:41.075Z,49.87
2018-04-17T11:54:40.978Z,45.83
2018-04-17T11:55:40.984Z,45.16
2018-04-17T11:56:40.848Z,44.07
2018-04-17T11:57:40.900Z,44.57
2018-04-17T11:58:40.718Z,44.09
2018-04-17T11:59:40.714Z,44.96
2018-04-17T12:00:40.588Z,45.06
2018-04-17T12:01:40.617Z,44.84
2018-04-17T12:02:40.457Z,43.20
2018-04-17T12:03:40.426Z,46.97
2018-04-17T12:04:40.327Z,48.61
2018-04-17T12:05:40.334Z,46.10
2018-04-17T12:06:40.197Z,45.04
2018-04-17T12:07:40.246Z,46.22
2018-04-17T12:08:40.066Z,47.28
2018-04-17T12:09:40.059Z,46.12
2018-04-17T12:10:39.943Z,40.52
2018-04-17T12:11:39.965Z,40.52
2018-04-17T12:12:39.810Z,43.51
2018-04-17T12:13:39.778Z,45.54
2018-04-17T12:14:39.762Z,42.74
2018-04-17T12:15:39.687Z,41.77
2018-04-17T12:16:39.555Z,45.54
2018-04-17T12:17:39.596Z,49.99
2018-04-17T12:18:39.421Z,51.64
2018-04-17T12:19:39.406Z,51.66
2018-04-17T12:20:39.290Z,46.25
2018-04-17T12:21:39.316Z,43.73
2018-04-17T12:22:39.160Z,46.61
2018-04-17T12:23:39.125Z,47.67
2018-04-17T12:24:39.031Z,47.96
2018-04-17T12:25:39.033Z,47.31
2018-04-17T12:26:38.896Z,44.38
2018-04-17T12:27:38.952Z,46.03
2018-04-17T12:28:38.772Z,48.64
2018-04-17T12:29:38.759Z,46.12
2018-04-17T12:30:38.646Z,44.67
2018-04-17T12:31:38.665Z,43.23
2018-04-17T12:32:38.516Z,45.42
2018-04-17T12:33:38.473Z,45.72
2018-04-17T12:34:38.436Z,43.98
2018-04-17T12:35:38.391Z,47.81
2018-04-17T12:36:38.255Z,46.08
2018-04-17T12:37:38.297Z,45.69
2018-04-17T12:38:38.124Z,43.76
2018-04-17T12:39:38.104Z,47.89
2018-04-17T12:40:38.000Z,48.79
2018-04-17T12:41:38.015Z,46.37
2018-04-17T12:42:37.865Z,43.95
2018-04-17T12:43:37.821Z,44.73
2018-04-17T12:44:37.738Z,44.05
2018-04-17T12:45:37.733Z,43.49
2018-04-17T12:46:37.608Z,44.36
2018-04-17T12:47:37.644Z,41.87
2018-04-17T12:48:37.477Z,43.13
2018-04-17T12:49:37.449Z,45.16
2018-04-17T12:50:37.352Z,41.77
2018-04-17T12:51:37.362Z,40.81